createdAt,value
2019-05-02T00:00:39.230Z,8.138428
2019-05-02T00:01:39.304Z,8.108215
2019-05-02T00:02:39.369Z,8.108215
2019-05-02T00:03:41.023Z,8.088074
2019-05-02T00:04:39.450Z,8.057861
2019-05-02T00:05:40.548Z,8.027649
2019-05-02T00:06:42.782Z,8.007507
2019-05-02T00:07:39.655Z,7.977295
2019-05-02T00:08:40.713Z,7.947083
2019-05-02T00:09:47.035Z,7.926941
2019-05-02T00:10:39.836Z,7.896729
2019-05-02T00:11:39.977Z,7.896729
2019-05-02T00:12:41.009Z,7.876587
2019-05-02T00:13:40.069Z,7.876587
2019-05-02T00:14:40.148Z,7.866516
2019-05-02T00:15:41.276Z,7.846375
2019-05-02T00:16:40.372Z,7.836304
2019-05-02T00:17:40.439Z,7.836304
2019-05-02T00:18:41.483Z,7.806091
2019-05-02T00:19:44.965Z,7.806091
2019-05-02T00:20:40.618Z,7.796021
2019-05-02T00:21:43.017Z,7.745667
2019-05-02T00:22:40.776Z,7.715454
2019-05-02T00:23:40.824Z,7.695312
2019-05-02T00:24:41.140Z,7.685242
2019-05-02T00:25:40.985Z,7.685242
2019-05-02T00:26:41.034Z,7.6651
2019-05-02T00:27:42.103Z,7.6651
2019-05-02T00:28:42.850Z,7.644958
2019-05-02T00:29:41.229Z,7.655029
2019-05-02T00:30:42.292Z,7.655029
2019-05-02T00:31:41.759Z,7.644958
2019-05-02T00:32:41.428Z,7.624817
2019-05-02T00:33:42.479Z,7.614746
2019-05-02T00:34:41.604Z,7.614746
2019-05-02T00:35:45.978Z,7.614746
2019-05-02T00:36:41.788Z,7.614746
2019-05-02T00:37:41.863Z,7.584534
2019-05-02T00:38:41.941Z,7.584534
2019-05-02T00:39:45.104Z,7.564392
2019-05-02T00:40:42.057Z,7.53418
2019-05-02T00:41:42.136Z,7.514038
2019-05-02T00:42:42.222Z,7.483826
2019-05-02T00:43:42.279Z,7.463684
2019-05-02T00:44:46.805Z,7.443542
2019-05-02T00:45:42.408Z,7.41333
2019-05-02T00:46:42.494Z,7.403259
2019-05-02T00:47:47.567Z,7.403259
2019-05-02T00:48:42.606Z,7.373047
2019-05-02T00:49:42.669Z,7.373047
2019-05-02T00:50:45.255Z,7.362976
2019-05-02T00:51:42.852Z,7.332764
2019-05-02T00:52:42.903Z,7.29248
2019-05-02T00:53:44.328Z,7.29248
2019-05-02T00:54:43.045Z,7.28241
2019-05-02T00:55:43.090Z,7.262268
2019-05-02T00:56:44.026Z,7.252197
2019-05-02T00:57:43.298Z,7.252197
2019-05-02T00:58:43.287Z,7.232056
2019-05-02T00:59:43.572Z,7.232056
2019-05-02T01:00:43.421Z,7.221985
2019-05-02T01:01:43.468Z,7.232056
2019-05-02T01:02:43.598Z,7.211914
2019-05-02T01:03:47.023Z,7.221985
2019-05-02T01:04:43.677Z,7.211914
2019-05-02T01:05:43.768Z,7.181702
2019-05-02T01:06:44.622Z,7.151489
2019-05-02T01:07:43.910Z,7.131348
2019-05-02T01:08:43.987Z,7.111206
2019-05-02T01:09:46.719Z,7.080994
2019-05-02T01:10:44.162Z,7.080994
2019-05-02T01:11:44.249Z,7.080994
2019-05-02T01:12:46.067Z,7.080994
2019-05-02T01:13:44.423Z,7.070923
2019-05-02T01:14:44.459Z,7.050781
2019-05-02T01:15:45.924Z,7.070923
2019-05-02T01:16:44.591Z,7.04071
2019-05-02T01:17:44.684Z,7.03064
2019-05-02T01:18:44.766Z,7.000427
2019-05-02T01:19:47.128Z,6.970215
2019-05-02T01:20:44.889Z,6.960144
2019-05-02T01:21:44.942Z,6.960144
2019-05-02T01:22:47.048Z,6.929932
2019-05-02T01:23:45.109Z,6.919861
2019-05-02T01:24:45.175Z,6.929932
2019-05-02T01:25:47.185Z,6.889648
2019-05-02T01:26:46.276Z,6.889648
2019-05-02T01:27:45.537Z,6.859436
2019-05-02T01:28:49.121Z,6.849365
2019-05-02T01:29:45.492Z,6.829224
2019-05-02T01:30:45.574Z,6.799011
2019-05-02T01:31:49.830Z,6.77887
2019-05-02T01:32:45.707Z,6.77887
2019-05-02T01:33:45.845Z,6.748657
2019-05-02T01:34:48.866Z,6.738586
2019-05-02T01:35:45.968Z,6.738586
2019-05-02T01:36:46.045Z,6.718445
2019-05-02T01:37:46.144Z,6.718445
2019-05-02T01:38:46.218Z,6.708374
2019-05-02T01:39:46.300Z,6.708374
2019-05-02T01:40:48.033Z,6.678162
2019-05-02T01:41:46.420Z,6.698303
2019-05-02T01:42:48.988Z,6.668091
2019-05-02T01:43:46.596Z,6.668091
2019-05-02T01:44:46.644Z,6.637878
2019-05-02T01:45:47.733Z,6.637878
2019-05-02T01:46:46.747Z,6.617737
2019-05-02T01:47:46.820Z,6.587524
2019-05-02T01:48:47.735Z,6.587524
2019-05-02T01:49:47.026Z,6.587524
2019-05-02T01:50:47.060Z,6.597595
2019-05-02T01:51:49.186Z,6.617737
2019-05-02T01:52:47.183Z,6.637878
2019-05-02T01:53:47.255Z,6.668091
2019-05-02T01:54:47.574Z,6.678162
2019-05-02T01:55:47.435Z,6.678162
2019-05-02T01:56:47.465Z,6.708374
2019-05-02T01:57:47.526Z,6.738586
2019-05-02T01:58:47.599Z,6.768799
2019-05-02T01:59:47.714Z,6.829224
2019-05-02T02:00:47.677Z,6.889648
2019-05-02T02:01:47.744Z,6.960144
2019-05-02T02:02:47.764Z,7.010498
2019-05-02T02:03:47.833Z,7.04071
2019-05-02T02:04:52.074Z,7.070923
2019-05-02T02:05:47.975Z,7.080994
2019-05-02T02:06:47.995Z,7.111206
2019-05-02T02:07:50.717Z,7.141418
2019-05-02T02:08:48.094Z,7.191772
2019-05-02T02:09:48.204Z,7.232056
2019-05-02T02:10:50.394Z,7.232056
2019-05-02T02:11:48.340Z,7.232056
2019-05-02T02:13:02.406Z,7.262268
2019-05-02T02:13:48.493Z,7.29248
2019-05-02T02:14:53.332Z,7.29248
2019-05-02T02:15:48.652Z,7.332764
2019-05-02T02:16:48.737Z,7.373047
2019-05-02T02:17:51.395Z,7.393188
2019-05-02T02:18:48.891Z,7.41333
2019-05-02T02:19:48.964Z,7.433472
2019-05-02T02:20:50.202Z,7.443542
2019-05-02T02:21:49.121Z,7.443542
2019-05-02T02:22:49.193Z,7.463684
2019-05-02T02:23:50.820Z,7.443542
2019-05-02T02:24:49.363Z,7.433472
2019-05-02T02:25:49.443Z,7.443542
2019-05-02T02:26:49.908Z,7.433472
2019-05-02T02:27:49.561Z,7.433472
2019-05-02T02:28:49.601Z,7.443542
2019-05-02T02:29:50.779Z,7.433472
2019-05-02T02:30:49.810Z,7.41333
2019-05-02T02:31:50.836Z,7.41333
2019-05-02T02:32:49.911Z,7.433472
2019-05-02T02:33:50.957Z,7.443542
2019-05-02T02:34:50.046Z,7.41333
2019-05-02T02:35:52.145Z,7.393188
2019-05-02T02:36:50.214Z,7.332764
2019-05-02T02:37:52.860Z,7.312622
2019-05-02T02:38:50.337Z,7.322693
2019-05-02T02:39:53.952Z,7.332764
2019-05-02T02:40:50.462Z,7.332764
2019-05-02T02:41:52.466Z,7.322693
2019-05-02T02:42:50.590Z,7.312622
2019-05-02T02:43:54.600Z,7.362976
2019-05-02T02:44:50.661Z,7.393188
2019-05-02T02:45:51.688Z,7.362976
2019-05-02T02:46:50.839Z,7.332764
2019-05-02T02:47:52.863Z,7.362976
2019-05-02T02:48:50.920Z,7.393188
2019-05-02T02:49:55.662Z,7.393188
2019-05-02T02:50:51.986Z,7.41333
2019-05-02T02:51:51.111Z,7.443542
2019-05-02T02:52:52.141Z,7.473755
2019-05-02T02:54:02.611Z,7.503967
2019-05-02T02:54:52.221Z,7.503967
2019-05-02T02:56:00.728Z,7.483826
2019-05-02T02:56:51.355Z,7.53418
2019-05-02T02:57:51.422Z,7.554321
2019-05-02T02:58:52.457Z,7.564392
2019-05-02T02:59:51.551Z,7.594604
2019-05-02T03:00:51.582Z,7.594604
2019-05-02T03:01:51.693Z,7.624817
2019-05-02T03:02:51.743Z,7.655029
2019-05-02T03:03:51.785Z,7.6651
2019-05-02T03:04:51.805Z,7.695312
2019-05-02T03:05:51.891Z,7.695312
2019-05-02T03:06:52.016Z,7.695312
2019-05-02T03:07:52.087Z,7.6651
2019-05-02T03:08:52.122Z,7.695312
2019-05-02T03:09:52.203Z,7.715454
2019-05-02T03:10:52.423Z,7.735596
2019-05-02T03:11:56.132Z,7.735596
2019-05-02T03:12:52.467Z,7.735596
2019-05-02T03:13:53.826Z,7.735596
2019-05-02T03:14:52.583Z,7.745667
2019-05-02T03:15:52.646Z,7.745667
2019-05-02T03:16:52.708Z,7.775879
2019-05-02T03:17:52.796Z,7.796021
2019-05-02T03:18:52.852Z,7.826233
2019-05-02T03:19:54.153Z,7.846375
2019-05-02T03:20:52.936Z,7.876587
2019-05-02T03:21:54.190Z,7.906799
2019-05-02T03:22:53.073Z,7.906799
2019-05-02T03:24:01.180Z,7.947083
2019-05-02T03:24:53.214Z,7.947083
2019-05-02T03:25:53.284Z,7.957153
2019-05-02T03:26:55.060Z,7.947083
2019-05-02T03:27:53.434Z,7.977295
2019-05-02T03:28:58.333Z,7.977295
2019-05-02T03:29:53.569Z,7.977295
2019-05-02T03:30:53.660Z,7.977295
2019-05-02T03:32:11.343Z,7.987366
2019-05-02T03:33:05.143Z,7.977295
2019-05-02T03:33:59.626Z,8.007507
2019-05-02T03:34:54.408Z,8.007507
2019-05-02T03:35:54.000Z,8.017578
2019-05-02T03:36:54.085Z,8.017578
2019-05-02T03:37:54.110Z,8.007507
2019-05-02T03:38:54.186Z,7.987366
2019-05-02T03:39:56.859Z,7.977295
2019-05-02T03:40:54.310Z,7.987366
2019-05-02T03:41:55.381Z,7.987366
2019-05-02T03:42:54.482Z,7.977295
2019-05-02T03:44:09.673Z,7.977295
2019-05-02T03:44:55.975Z,7.957153
2019-05-02T03:45:54.603Z,7.977295
2019-05-02T03:47:01.789Z,7.977295
2019-05-02T03:47:54.749Z,7.977295
2019-05-02T03:49:05.324Z,7.987366
2019-05-02T03:49:54.846Z,8.007507
2019-05-02T03:50:54.916Z,8.017578
2019-05-02T03:51:55.739Z,8.027649
2019-05-02T03:52:55.029Z,8.047791
2019-05-02T03:54:05.521Z,8.047791
2019-05-02T03:54:55.110Z,8.047791
2019-05-02T03:55:55.232Z,8.047791
2019-05-02T03:56:55.244Z,8.047791
2019-05-02T03:57:55.402Z,8.078003
2019-05-02T03:58:57.866Z,8.078003
2019-05-02T03:59:55.580Z,8.047791
2019-05-02T04:01:01.458Z,8.047791
2019-05-02T04:01:55.777Z,8.057861
2019-05-02T04:03:00.138Z,8.047791
2019-05-02T04:03:55.990Z,8.007507
2019-05-02T04:05:00.379Z,7.987366
2019-05-02T04:05:56.103Z,7.987366
2019-05-02T04:07:00.949Z,8.007507
2019-05-02T04:07:56.231Z,8.017578
2019-05-02T04:08:59.734Z,8.027649
2019-05-02T04:09:56.348Z,8.047791
2019-05-02T04:10:59.321Z,8.078003
2019-05-02T04:11:56.444Z,8.057861
2019-05-02T04:12:58.319Z,8.057861
2019-05-02T04:13:56.612Z,8.017578
2019-05-02T04:14:57.432Z,8.027649
2019-05-02T04:15:56.711Z,8.078003
2019-05-02T04:16:57.326Z,8.088074
2019-05-02T04:17:56.940Z,8.088074
2019-05-02T04:18:58.103Z,8.108215
2019-05-02T04:19:57.078Z,8.128357
2019-05-02T04:20:57.186Z,8.158569
2019-05-02T04:22:01.439Z,8.138428
2019-05-02T04:22:57.362Z,8.078003
2019-05-02T04:24:06.486Z,8.057861
2019-05-02T04:24:57.546Z,8.088074
2019-05-02T04:25:57.647Z,8.128357
2019-05-02T04:26:57.728Z,8.158569
2019-05-02T04:27:57.837Z,8.158569
2019-05-02T04:28:57.952Z,8.178711
2019-05-02T04:30:09.563Z,8.198853
2019-05-02T04:30:58.089Z,8.229065
2019-05-02T04:31:58.202Z,8.239136
2019-05-02T04:32:58.290Z,8.259277
2019-05-02T04:33:58.435Z,8.279419
2019-05-02T04:34:58.515Z,8.208923
2019-05-02T04:35:59.402Z,8.198853
2019-05-02T04:37:00.881Z,8.198853
2019-05-02T04:38:01.479Z,8.178711
2019-05-02T04:38:59.615Z,8.198853
2019-05-02T04:40:03.109Z,8.208923
2019-05-02T04:40:59.282Z,8.198853
2019-05-02T04:42:05.171Z,8.208923
2019-05-02T04:43:01.795Z,8.239136
2019-05-02T04:44:01.495Z,8.259277
2019-05-02T04:45:13.620Z,8.259277
2019-05-02T04:46:00.236Z,8.279419
2019-05-02T04:47:10.763Z,8.309631
2019-05-02T04:48:03.962Z,8.269348
2019-05-02T04:48:59.890Z,8.269348
2019-05-02T04:49:59.866Z,8.269348
2019-05-02T04:51:09.670Z,8.259277
2019-05-02T04:52:06.677Z,8.229065
2019-05-02T04:53:01.279Z,8.208923
2019-05-02T04:54:00.475Z,8.239136
2019-05-02T04:55:14.187Z,8.229065
2019-05-02T04:56:06.785Z,8.259277
2019-05-02T04:57:02.267Z,8.269348
2019-05-02T04:58:01.688Z,8.279419
2019-05-02T04:59:08.211Z,8.269348
2019-05-02T05:00:06.077Z,8.279419
2019-05-02T05:01:01.979Z,8.259277
2019-05-02T05:02:02.184Z,8.239136
2019-05-02T05:03:01.165Z,8.239136
2019-05-02T05:04:02.968Z,8.229065
2019-05-02T05:05:01.193Z,8.198853
2019-05-02T05:06:07.844Z,8.208923
2019-05-02T05:07:01.539Z,8.239136
2019-05-02T05:08:01.365Z,8.198853
2019-05-02T05:09:03.947Z,8.229065
2019-05-02T05:10:03.224Z,8.229065
2019-05-02T05:11:01.525Z,8.269348
2019-05-02T05:12:02.705Z,8.259277
2019-05-02T05:13:01.520Z,8.259277
2019-05-02T05:14:01.511Z,8.239136
2019-05-02T05:15:01.561Z,8.269348
2019-05-02T05:16:02.871Z,8.269348
2019-05-02T05:17:02.773Z,8.208923
2019-05-02T05:18:04.342Z,8.178711
2019-05-02T05:19:01.911Z,8.178711
2019-05-02T05:20:10.335Z,8.208923
2019-05-02T05:21:01.966Z,8.239136
2019-05-02T05:22:04.633Z,8.269348
2019-05-02T05:23:02.137Z,8.269348
2019-05-02T05:24:02.140Z,8.279419
2019-05-02T05:25:02.180Z,8.259277
2019-05-02T05:26:04.605Z,8.259277
2019-05-02T05:27:02.252Z,8.229065
2019-05-02T05:28:05.800Z,8.208923
2019-05-02T05:29:02.540Z,8.229065
2019-05-02T05:30:09.277Z,8.208923
2019-05-02T05:31:02.674Z,8.208923
2019-05-02T05:32:05.561Z,8.229065
2019-05-02T05:33:02.703Z,8.239136
2019-05-02T05:34:02.709Z,8.259277
2019-05-02T05:35:08.824Z,8.309631
2019-05-02T05:36:02.886Z,8.339844
2019-05-02T05:37:08.193Z,8.359985
2019-05-02T05:38:02.914Z,8.390198
2019-05-02T05:39:07.272Z,8.42041
2019-05-02T05:40:03.232Z,8.460693
2019-05-02T05:41:08.766Z,8.460693
2019-05-02T05:42:03.234Z,8.500977
2019-05-02T05:43:11.942Z,8.531189
2019-05-02T05:44:03.233Z,8.531189
2019-05-02T05:45:03.641Z,8.54126
2019-05-02T05:46:10.509Z,8.561401
2019-05-02T05:47:03.276Z,8.561401
2019-05-02T05:48:03.275Z,8.54126
2019-05-02T05:49:03.277Z,8.571472
2019-05-02T05:50:03.424Z,8.641968
2019-05-02T05:51:03.474Z,8.692322
2019-05-02T05:52:04.048Z,8.742676
2019-05-02T05:53:03.447Z,8.722534
2019-05-02T05:54:03.448Z,8.712463
2019-05-02T05:55:04.949Z,8.692322
2019-05-02T05:56:03.635Z,8.682251
2019-05-02T05:57:03.688Z,8.692322
2019-05-02T05:58:12.056Z,8.772888
2019-05-02T05:59:03.831Z,8.813171
2019-05-02T06:00:09.327Z,8.863525
2019-05-02T06:01:06.829Z,8.893738
2019-05-02T06:02:05.354Z,8.893738
2019-05-02T06:03:11.329Z,8.893738
2019-05-02T06:04:04.309Z,8.903809
2019-05-02T06:05:04.468Z,8.873596
2019-05-02T06:06:04.472Z,8.873596
2019-05-02T06:07:04.510Z,8.873596
2019-05-02T06:08:04.525Z,8.893738
2019-05-02T06:09:04.512Z,8.893738
2019-05-02T06:10:07.661Z,8.954163
2019-05-02T06:11:04.500Z,8.964233
2019-05-02T06:12:04.656Z,8.934021
2019-05-02T06:13:05.134Z,8.994446
2019-05-02T06:14:04.538Z,9.004517
2019-05-02T06:15:04.575Z,9.024658
2019-05-02T06:16:04.699Z,9.034729
2019-05-02T06:17:04.874Z,9.115295
2019-05-02T06:18:06.052Z,9.125366
2019-05-02T06:19:04.931Z,9.105225
2019-05-02T06:20:05.074Z,9.085083
2019-05-02T06:21:08.641Z,9.034729
2019-05-02T06:22:05.126Z,9.054871
2019-05-02T06:23:05.139Z,9.115295
2019-05-02T06:24:05.252Z,9.185791
2019-05-02T06:25:08.619Z,9.205933
2019-05-02T06:26:07.621Z,9.185791
2019-05-02T06:27:05.562Z,9.185791
2019-05-02T06:28:06.731Z,9.17572
2019-05-02T06:29:05.593Z,9.125366
2019-05-02T06:30:05.735Z,9.115295
2019-05-02T06:31:07.129Z,9.145508
2019-05-02T06:32:05.811Z,9.205933
2019-05-02T06:33:05.790Z,9.236145
2019-05-02T06:34:06.943Z,9.286499
2019-05-02T06:35:05.821Z,9.356995
2019-05-02T06:36:05.819Z,9.336853
2019-05-02T06:37:08.062Z,9.336853
2019-05-02T06:38:05.904Z,9.29657
2019-05-02T06:39:05.917Z,9.29657
2019-05-02T06:40:07.957Z,9.286499
2019-05-02T06:41:05.954Z,9.29657
2019-05-02T06:42:06.097Z,9.326782
2019-05-02T06:43:09.562Z,9.326782
2019-05-02T06:44:05.973Z,9.256287
2019-05-02T06:45:05.988Z,9.256287
2019-05-02T06:46:15.800Z,9.205933
2019-05-02T06:47:06.156Z,9.216003
2019-05-02T06:48:06.246Z,9.266357
2019-05-02T06:49:06.221Z,9.306641
2019-05-02T06:50:06.229Z,9.326782
2019-05-02T06:51:10.401Z,9.336853
2019-05-02T06:52:06.447Z,9.356995
2019-05-02T06:53:09.480Z,9.417419
2019-05-02T06:54:06.427Z,9.437561
2019-05-02T06:55:06.458Z,9.447632
2019-05-02T06:56:07.895Z,9.447632
2019-05-02T06:57:06.505Z,9.417419
2019-05-02T06:58:08.088Z,9.417419
2019-05-02T06:59:06.555Z,9.417419
2019-05-02T07:00:06.888Z,9.477844
2019-05-02T07:01:06.725Z,9.54834
2019-05-02T07:02:06.874Z,9.588623
2019-05-02T07:03:10.085Z,9.638977
2019-05-02T07:04:06.952Z,9.719543
2019-05-02T07:05:06.961Z,9.729614
2019-05-02T07:06:07.756Z,9.719543
2019-05-02T07:07:07.027Z,9.759827
2019-05-02T07:08:11.584Z,9.729614
2019-05-02T07:09:07.171Z,9.689331
2019-05-02T07:10:07.531Z,9.638977
2019-05-02T07:11:08.139Z,9.618835
2019-05-02T07:12:09.717Z,9.659119
2019-05-02T07:13:10.614Z,9.719543
2019-05-02T07:14:13.235Z,9.759827
2019-05-02T07:15:08.348Z,9.840393
2019-05-02T07:16:10.289Z,9.870605
2019-05-02T07:17:07.535Z,9.880676
2019-05-02T07:18:10.538Z,9.900818
2019-05-02T07:19:07.637Z,9.900818
2019-05-02T07:20:07.655Z,9.810181
2019-05-02T07:21:07.694Z,9.759827
2019-05-02T07:22:07.677Z,9.759827
2019-05-02T07:23:10.405Z,9.810181
2019-05-02T07:24:07.764Z,9.880676
2019-05-02T07:25:08.892Z,9.900818
2019-05-02T07:26:07.960Z,9.971313
2019-05-02T07:27:08.118Z,9.991455
2019-05-02T07:28:09.347Z,10.001526
2019-05-02T07:29:08.194Z,9.951172
2019-05-02T07:30:08.204Z,9.971313
2019-05-02T07:31:11.841Z,10.001526
2019-05-02T07:32:08.191Z,9.971313
2019-05-02T07:33:08.200Z,9.971313
2019-05-02T07:34:12.793Z,10.031738
2019-05-02T07:35:08.269Z,10.102234
2019-05-02T07:36:08.288Z,10.021667
2019-05-02T07:37:12.182Z,10.001526
2019-05-02T07:38:08.337Z,9.991455
2019-05-02T07:39:08.501Z,10.061951
2019-05-02T07:40:11.983Z,10.061951
2019-05-02T07:41:08.517Z,10.122375
2019-05-02T07:42:08.551Z,10.152588
2019-05-02T07:43:08.603Z,10.202942
2019-05-02T07:44:08.657Z,10.283508
2019-05-02T07:45:09.240Z,10.384216
2019-05-02T07:46:08.761Z,10.364075
2019-05-02T07:47:08.788Z,10.364075
2019-05-02T07:48:12.425Z,10.364075
2019-05-02T07:49:08.994Z,10.313721
2019-05-02T07:50:10.244Z,10.364075
2019-05-02T07:51:09.142Z,10.414429
2019-05-02T07:52:09.185Z,10.464783
2019-05-02T07:53:13.951Z,10.545349
2019-05-02T07:54:09.261Z,10.615845
2019-05-02T07:55:10.111Z,10.585632
2019-05-02T07:56:12.360Z,10.545349
2019-05-02T07:57:09.433Z,10.525208
2019-05-02T07:58:10.472Z,10.394287
2019-05-02T07:59:09.473Z,10.384216
2019-05-02T08:00:10.545Z,10.414429
2019-05-02T08:01:13.341Z,10.454712
2019-05-02T08:02:09.598Z,10.464783
2019-05-02T08:03:10.601Z,10.464783
2019-05-02T08:04:12.797Z,10.484924
2019-05-02T08:05:09.738Z,10.545349
2019-05-02T08:06:10.806Z,10.494995
2019-05-02T08:07:09.834Z,10.565491
2019-05-02T08:08:10.872Z,10.67627
2019-05-02T08:09:09.933Z,10.716553
2019-05-02T08:10:10.078Z,10.817261
2019-05-02T08:11:10.199Z,10.857544
2019-05-02T08:12:10.339Z,10.887756
2019-05-02T08:13:11.962Z,10.897827
2019-05-02T08:14:10.595Z,10.968323
2019-05-02T08:15:13.008Z,11.069031
2019-05-02T08:16:10.740Z,11.18988
2019-05-02T08:17:16.761Z,11.250305
2019-05-02T08:18:10.851Z,11.220093
2019-05-02T08:19:10.954Z,11.199951
2019-05-02T08:20:13.522Z,11.220093
2019-05-02T08:21:11.206Z,11.220093
2019-05-02T08:22:13.444Z,11.330872
2019-05-02T08:23:13.572Z,11.351013
2019-05-02T08:24:11.418Z,11.411438
2019-05-02T08:25:11.645Z,11.351013
2019-05-02T08:26:11.542Z,11.381226
2019-05-02T08:27:11.660Z,11.481934
2019-05-02T08:28:15.736Z,11.582642
2019-05-02T08:29:11.698Z,11.733704
2019-05-02T08:30:11.668Z,11.834412
2019-05-02T08:31:13.427Z,11.854553
2019-05-02T08:32:11.828Z,11.784058
2019-05-02T08:33:11.964Z,11.864624
2019-05-02T08:34:14.796Z,11.894836
2019-05-02T08:35:12.179Z,11.864624
2019-05-02T08:36:12.188Z,11.94519
2019-05-02T08:37:12.255Z,11.985474
2019-05-02T08:38:17.180Z,12.096252
2019-05-02T08:39:14.384Z,12.176819
2019-05-02T08:40:12.493Z,12.166748
2019-05-02T08:41:12.631Z,12.116394
2019-05-02T08:42:12.627Z,12.166748
2019-05-02T08:43:12.727Z,12.297668
2019-05-02T08:44:16.681Z,12.277527
2019-05-02T08:45:12.842Z,12.398376
2019-05-02T08:46:14.400Z,12.499084
2019-05-02T08:47:18.869Z,12.56958
2019-05-02T08:48:13.037Z,12.619934
2019-05-02T08:49:14.111Z,12.69043
2019-05-02T08:50:13.205Z,12.720642
2019-05-02T08:51:13.373Z,12.730713
2019-05-02T08:52:13.401Z,12.861633
2019-05-02T08:53:14.146Z,12.781067
2019-05-02T08:54:13.460Z,12.750854
2019-05-02T08:55:13.624Z,12.720642
2019-05-02T08:56:15.983Z,12.841492
2019-05-02T08:57:13.648Z,12.911987
2019-05-02T08:58:14.608Z,13.063049
2019-05-02T08:59:13.972Z,13.032837
2019-05-02T09:00:14.128Z,13.032837
2019-05-02T09:01:15.458Z,13.123474
2019-05-02T09:02:14.176Z,13.234253
2019-05-02T09:03:14.142Z,13.19397
2019-05-02T09:04:15.293Z,13.204041
2019-05-02T09:05:14.437Z,13.204041
2019-05-02T09:06:17.038Z,13.234253
2019-05-02T09:07:14.633Z,13.214111
2019-05-02T09:08:16.504Z,13.113403
2019-05-02T09:09:14.605Z,13.163757
2019-05-02T09:10:14.645Z,13.264465
2019-05-02T09:11:15.807Z,13.365173
2019-05-02T09:12:15.247Z,13.244324
2019-05-02T09:13:15.743Z,13.274536
2019-05-02T09:14:14.913Z,13.425598
2019-05-02T09:15:14.919Z,13.425598
2019-05-02T09:16:14.979Z,13.546448
2019-05-02T09:17:16.599Z,13.606873
2019-05-02T09:18:15.069Z,13.647156
2019-05-02T09:19:21.175Z,13.616943
2019-05-02T09:20:20.531Z,13.536377
2019-05-02T09:21:15.182Z,13.546448
2019-05-02T09:22:16.734Z,13.606873
2019-05-02T09:23:15.364Z,13.566589
2019-05-02T09:24:20.747Z,13.566589
2019-05-02T09:25:15.433Z,13.616943
2019-05-02T09:26:15.441Z,13.677368
2019-05-02T09:27:15.473Z,13.788147
2019-05-02T09:28:17.031Z,13.999634
2019-05-02T09:29:15.491Z,13.969421
2019-05-02T09:30:16.972Z,13.798218
2019-05-02T09:31:15.537Z,13.788147
2019-05-02T09:32:17.041Z,13.606873
2019-05-02T09:33:15.647Z,13.566589
2019-05-02T09:34:16.998Z,13.647156
2019-05-02T09:35:15.797Z,13.818359
2019-05-02T09:36:15.811Z,14.029846
2019-05-02T09:37:16.996Z,14.130554
2019-05-02T09:38:16.343Z,14.231262
2019-05-02T09:39:16.029Z,14.231262
2019-05-02T09:40:16.757Z,14.221191
2019-05-02T09:41:19.297Z,14.281616
2019-05-02T09:42:19.041Z,14.362183
2019-05-02T09:43:16.497Z,14.311829
2019-05-02T09:44:18.654Z,14.301758
2019-05-02T09:45:16.536Z,14.362183
2019-05-02T09:46:16.728Z,14.442749
2019-05-02T09:47:16.589Z,14.432678
2019-05-02T09:48:17.110Z,14.493103
2019-05-02T09:49:16.731Z,14.533386
2019-05-02T09:50:20.441Z,14.563599
2019-05-02T09:51:17.535Z,14.493103
2019-05-02T09:52:16.934Z,14.523315
2019-05-02T09:53:20.489Z,14.624023
2019-05-02T09:54:17.059Z,14.684448
2019-05-02T09:55:17.109Z,14.785156
2019-05-02T09:56:17.121Z,14.895935
2019-05-02T09:57:17.122Z,14.986572
2019-05-02T09:58:21.146Z,15.187988
2019-05-02T09:59:27.485Z,15.318909
2019-05-02T10:00:17.291Z,15.258484
2019-05-02T10:01:17.366Z,15.218201
2019-05-02T10:02:17.521Z,15.107422
2019-05-02T10:03:17.528Z,15.137634
2019-05-02T10:04:17.592Z,15.036926
2019-05-02T10:05:17.591Z,15.107422
2019-05-02T10:06:18.274Z,15.187988
2019-05-02T10:07:17.635Z,15.248413
2019-05-02T10:08:17.790Z,15.177917
2019-05-02T10:09:18.603Z,15.268555
2019-05-02T10:10:17.943Z,15.288696
2019-05-02T10:11:22.341Z,15.288696
2019-05-02T10:12:18.110Z,15.389404
2019-05-02T10:13:19.287Z,15.480042
2019-05-02T10:14:18.345Z,15.510254
2019-05-02T10:15:19.481Z,15.550537
2019-05-02T10:16:23.334Z,15.721741
2019-05-02T10:17:18.795Z,15.762024
2019-05-02T10:18:19.522Z,15.651245
2019-05-02T10:19:19.960Z,15.520325
2019-05-02T10:20:23.349Z,15.510254
2019-05-02T10:21:20.153Z,15.510254
2019-05-02T10:22:19.146Z,15.540466
2019-05-02T10:23:21.338Z,15.480042
2019-05-02T10:24:19.270Z,15.268555
2019-05-02T10:25:19.323Z,15.349121
2019-05-02T10:26:24.350Z,15.469971
2019-05-02T10:27:21.173Z,15.631104
2019-05-02T10:28:19.520Z,15.782166
2019-05-02T10:29:20.836Z,15.943298
2019-05-02T10:30:21.591Z,15.943298
2019-05-02T10:31:21.806Z,16.033936
2019-05-02T10:32:19.735Z,16.054077
2019-05-02T10:33:19.817Z,15.923157
2019-05-02T10:34:22.587Z,15.731812
2019-05-02T10:35:19.968Z,15.782166
2019-05-02T10:36:23.319Z,16.356201
2019-05-02T10:37:21.698Z,16.990662
2019-05-02T10:38:20.301Z,17.504272
2019-05-02T10:39:20.466Z,18.058167
2019-05-02T10:40:22.379Z,18.390503
2019-05-02T10:41:22.198Z,18.612061
2019-05-02T10:42:22.036Z,18.662415
2019-05-02T10:43:22.211Z,18.491211
2019-05-02T10:44:22.530Z,18.48114
2019-05-02T10:45:22.466Z,18.179016
2019-05-02T10:46:22.882Z,17.967529
2019-05-02T10:47:22.170Z,17.745972
2019-05-02T10:48:25.636Z,17.534485
2019-05-02T10:49:22.594Z,17.383423
2019-05-02T10:50:22.239Z,17.504272
2019-05-02T10:51:25.410Z,17.544556
2019-05-02T10:52:29.285Z,18.118591
2019-05-02T10:53:21.866Z,18.581848
2019-05-02T10:54:23.070Z,19.045105
2019-05-02T10:55:23.699Z,19.286804
2019-05-02T10:56:22.147Z,19.719849
2019-05-02T10:57:21.979Z,20.082397
2019-05-02T10:58:23.856Z,20.183105
2019-05-02T10:59:22.149Z,19.850769
2019-05-02T11:00:22.091Z,20.021973
2019-05-02T11:01:22.030Z,19.870911
2019-05-02T11:02:22.291Z,20.021973
2019-05-02T11:03:22.541Z,19.901123
2019-05-02T11:04:26.363Z,19.548645
2019-05-02T11:05:26.121Z,19.48822
2019-05-02T11:06:22.452Z,19.568787
2019-05-02T11:07:26.150Z,19.216309
2019-05-02T11:08:22.577Z,19.347229
2019-05-02T11:09:26.224Z,18.863831
2019-05-02T11:10:22.680Z,18.85376
2019-05-02T11:11:22.702Z,18.551636
2019-05-02T11:12:25.476Z,18.108521
2019-05-02T11:13:22.823Z,17.776184
2019-05-02T11:14:22.951Z,17.574768
2019-05-02T11:15:23.027Z,17.47406
2019-05-02T11:16:23.034Z,17.524414
2019-05-02T11:17:23.149Z,17.897034
2019-05-02T11:18:38.669Z,17.907104
2019-05-02T11:19:23.356Z,17.907104
2019-05-02T11:20:23.529Z,18.269653
2019-05-02T11:21:23.591Z,18.742981
2019-05-02T11:22:23.751Z,19.035034
2019-05-02T11:23:23.936Z,19.337158
2019-05-02T11:24:24.018Z,19.770203
2019-05-02T11:25:24.175Z,19.870911
2019-05-02T11:26:25.171Z,19.48822
2019-05-02T11:27:24.287Z,19.226379
2019-05-02T11:28:24.355Z,18.974609
2019-05-02T11:29:24.474Z,18.511353
2019-05-02T11:30:26.456Z,17.997742
2019-05-02T11:31:24.709Z,17.997742
2019-05-02T11:32:24.777Z,18.410645
2019-05-02T11:33:24.825Z,18.612061
2019-05-02T11:34:24.828Z,19.196167
2019-05-02T11:35:25.007Z,19.588928
2019-05-02T11:36:27.313Z,20.042114
2019-05-02T11:37:25.080Z,20.303955
2019-05-02T11:38:38.390Z,20.525513
2019-05-02T11:39:32.727Z,20.596008